Airfield :
LOGIN :

Register | Disclaimer

   EN    FR    IT 

 










Legend :    VFR   Marginal VFR   IFR   Intensive IFR   Very Intensive IFR
Visi :
Ceiling :
>= 8 km
>= 3000ft
5 to 8 km
1000 to 3000 ft
1500m to 5 km
500 to 1000 ft
800 to 1500m
200 to 500 ft
< 800m
< 200 ft
Symbols :   Thunderstorms  Fog  Heavy snow  Heavy precipitations  Wind > 20 kt
SIGMETs :     Misc.  Thunderstorms  Icing  Turbulence  Mountain Waves  Volcanic Ashes






- Airport Elevation : 309 ft
- IATA code : FNI


LFTW - Nîmes Garons

CURRENT METAR :
  • 181930Z AUTO 01009KT CAVOK 11/M00 Q1018

EXPIRED METARs :
  • 181900Z AUTO 35012KT CAVOK 12/00 Q1018 NOSIG
  • 181830Z AUTO 36012KT CAVOK 13/01 Q1017 NOSIG
  • 181800Z AUTO 01013KT CAVOK 14/01 Q1017 NOSIG
  • 181730Z AUTO 36016KT CAVOK 15/00 Q1016 NOSIG
  • 181700Z AUTO 35015KT 320V030 CAVOK 16/00 Q1016 TEMPO 31025G40KT SHRA BKN060TCU

TAF TAF LFTW
Valid from the 18 at 15:00 until the 19 at 15:00 UTC


181400Z 1815/1915 01015KT CAVOK
TEMPO 1815/1818 31025G40KT SHRA BKN060TCU
BECMG 1818/1820 34010KT



MET'MAP, your aeronautical weather chart ! - Copyright ORBIFLY December 2007 - Disclaimer

ORBIFLY MET'MAP TEAM :

Programming & Development : Alexandra Zaïnal
Concept & original design : Baudouin d'Aumeries
Assistance for programming : Marc-Olivier Méhu
Technical & hardware support : Manuel Goepfert

Contact : metmap@orbifly.com




SOURCES & CREDITS :

   NOAA